Simi Valley, CA

3:54 AM PDT on August 27, 2014 (GMT -0700)
Whiteman | Change Station
CLOSE
Current Station
Airport
Location: San Fernando,
Elevation: 1004 ft
Nearby Weather Stations

Elev 1004 ft 34.26 °N, 118.41 °W | Updated 8 hours ago

Clear
Clear
63 °F
Feels Like 63 °F
N
9
Wind Variable Wind from NE
Gusts 12 mph

Today
High -- | Low -- °F
--% Chance of Precip.
Yesterday
High -- | Low -- °F
Precip. -- in
6:24 AM 7:27 PM
Waxing Crescent, 3% visible
Pressure 29.98 in
Visibility 10.0 miles
Clouds Clear
Dew Point 52 °F
Humidity 66%
Rainfall 0.00 in
Snow Depth Not available.
UV 0 out of 12
Pollen 6.80 out of 12
PM2.5 Good
Flu Activity Not available.
METAR KWHP 270247Z 13005KT 10SM SKC 27/09 A2998 RMK LAST

More Conditions Fewer Conditions

Pressure 29.98 in
Visibility 10.0 miles
Clouds Clear
Dew Point 52 °F
Humidity 66%
Rainfall 0.00 in
Snow Depth Not available.
UV 0 out of 12
Pollen 6.80 out of 12
PM2.5 Good
Flu Activity Not available.
METAR KWHP 270247Z 13005KT 10SM SKC 27/09 A2998 RMK LAST

More Conditions Fewer Conditions

10-Day Weather Forecast

Almanac

Astronomy

Aug. 27, 2014 Rise Set
Actual Time 6:24 AM PDT 7:27 PM PDT
Civil Twilight 5:58 AM PDT 7:53 PM PDT
Nautical Twilight 5:28 AM PDT 8:23 PM PDT
Astronomical Twilight 4:56 AM PDT 8:55 PM PDT
Moon 8:18 AM PDT 8:30 PM PDT
Length of Visible Light 13h 54m
Length of Day
13h 02m
Tomorrow will be 2m 1s shorter.
Waxing Crescent, 3% of the Moon is Illuminated
Today
Waxing Crescent
Sep 2
First Quarter
Sep 8
Full
Sep 15
Last Quarter
Sep 24
New

Today's Extremes

State Highs State Lows

Community

WunderPhotos

Upload Photos

1,747,666 photos uploaded!

Nearby

Air Quality

  Air Quality AQ Index Pollutant
Yesterday Good
OZONE
Yesterday Good
PM2.5
Current Good
PM2.5
Wednesday Moderate
OZONE
Wednesday Good
PM2.5

Snow Depth

Station Depth Elevation
Leavitt Lake 1 in 9400 ft
Sonora Pass 0 in 8800 ft
Leavitt Meadows 1 in 7200 ft
Summit Meadow 1 in 9122 ft
Ebbetts Pass 0 in 8700 ft

Earthquake Activity

City Distance Mag. Time & Date
San Fernando, California 19 miles 2.5 4:57 AM PDT
2014-08-26
San Pedro, California 48 miles 3.2 7:50 PM PDT
2014-08-24
Minimum magnitude displayed is 2.5.

Coastal Water Temperatures

Place Temperature
Santa Monica Pier 70.0 °F
Los Angeles, CA 66.0 °F
La Jolla, CA 73.0 °F

Nearby Weather Stations